Dahlonega, GA (30533)

7:36 PM EDT on September 04, 2015 (GMT -0400)
Myers Chance Rd. | | Change Station
CLOSE
Current Station
Personal Weather Station
Location: Dahlonega, GA
Elevation: 1530 ft
Nearby Weather Stations

Elev 1530 ft 34.58 °N, 83.98 °W | Updated 58 seconds ago

Partly Cloudy
Partly Cloudy
80.6 °F
Feels Like 85 °F
N
0.0
Wind Variable Wind from North
Gusts 0.0 mph

Today
High -- | Low -- °F
--% Chance of Precip.
Yesterday
High -- | Low -- °F
Precip. -- in
7:11 AM 7:58 PM
Waning Gibbous, 55% visible
Pressure 29.98 in
Visibility 10.0 miles
Clouds Clear
Heat Index 85 °F
Dew Point 73 °F
Humidity 78%
Rainfall 0.00 in
Snow Depth Not available.
UV 1 out of 12
Pollen 8.80 out of 12
Air Quality Not available.
Flu Activity Not available.
METAR KGVL 042253Z AUTO 00000KT 10SM CLR 28/20 A3003 RMK AO2 SLP151 T02830200
Pressure 29.98 in
Visibility 10.0 miles
Clouds Clear
Heat Index 85 °F
Dew Point 73 °F
Humidity 78%
Rainfall 0.00 in
Snow Depth Not available.
UV 1 out of 12
Pollen 8.80 out of 12
Air Quality Not available.
Flu Activity Not available.
METAR KGVL 042253Z AUTO 00000KT 10SM CLR 28/20 A3003 RMK AO2 SLP151 T02830200

10-Day Weather Forecast

×

Almanac

Astronomy

Sep. 04, 2015 Rise Set
Actual Time
Civil Twilight
Nautical Twilight
Astronomical Twilight
Moon
Length of Visible Light
Length of Day
Tomorrow will be .
, % of the Moon is Illuminated

Today's Extremes

State Highs State Lows

Community

WunderPhotos

Upload Photos

1,852,338 photos uploaded!

WunderBlogs® & News

Nearby

Air Quality

  Air Quality AQ Index Pollutant
Not available.

Snow Depth

Station Depth Elevation

Earthquake Activity

City Distance Mag. Time & Date
Minimum magnitude displayed is 2.5.

Coastal Water Temperatures

Place Temperature

Stations

Nearby Weather Stations

Station Location Temp. Windchill Dew Point Humidity Wind Precip. Elev Updated Type